Terminal Aerodrome Forecast
Issued by NWS

Home | Current Version | Previous Version | Text Only | Print | Product List | Glossary Off
Versions: 1 2 3 4 5 6 7 8 9 10 11 12 13 14

000
FTUS43 KGRB 301133
TAFRHI
TAF
KRHI 301133Z 3012/0112 05004KT P6SM FEW060 BKN250
     FM301500 06008KT P6SM SCT060 BKN250
     FM302200 06007KT P6SM SCT040 BKN100
     FM010900 03005KT P6SM SCT030 BKN080=

USA.gov is the U.S. government's official web portal to all federal, state and local government web resources and services.